Time;durP1;ratioP1;P1;durP2;ratioP2;P2;SDS_P1;SDS_P2;PMS_P1;PMS_P2;Temp;Humidity;BMP_temperature;BMP_pressure;BME280_temperature;BME280_humidity;BME280_pressure;Samples;Min_cycle;Max_cycle;Signal;HPM_P1;HPM_P2
2021/05/16 00:01:00;;;;;;;12.25;8.71;;;;;;;14.48;64.99;98858.98;369131;104;2347234;-72
2021/05/16 00:02:05;;;;;;;10.76;8.43;;;;;;;14.35;65.07;98859.35;344042;107;1961990;-73
2021/05/16 00:03:29;;;;;;;11.20;8.09;;;;;;;14.33;65.10;98856.05;371888;107;1962009;-72
2021/05/16 00:04:41;;;;;;;12.26;8.81;;;;;;;14.44;65.27;98865.98;381410;106;1986975;-72
2021/05/16 00:05:46;;;;;;;11.81;8.24;;;;;;;14.28;65.37;98865.77;367446;109;1962079;-72
2021/05/16 00:06:52;;;;;;;12.95;8.71;;;;;;;14.29;65.38;98858.46;364105;109;1961415;-73
2021/05/16 00:08:05;;;;;;;12.89;9.62;;;;;;;14.41;65.64;98861.05;356121;106;2407845;-72
2021/05/16 00:09:10;;;;;;;10.89;8.23;;;;;;;14.26;65.61;98858.93;340902;109;1961997;-73
2021/05/16 00:10:24;;;;;;;12.21;8.92;;;;;;;14.36;65.89;98860.98;376306;108;2070996;-74
2021/05/16 00:11:30;;;;;;;12.05;8.89;;;;;;;14.22;65.92;98853.19;340294;112;2258050;-75
2021/05/16 00:12:56;;;;;;;10.95;8.20;;;;;;;14.19;65.93;98850.97;357767;112;1962043;-73
2021/05/16 00:14:09;;;;;;;10.87;7.74;;;;;;;14.29;66.08;98858.46;394194;104;1985664;-73
2021/05/16 00:15:18;;;;;;;12.88;8.76;;;;;;;14.14;66.01;98853.61;326805;107;2825809;-72
2021/05/16 00:16:24;;;;;;;11.31;8.07;;;;;;;14.16;66.21;98854.20;367223;109;1962021;-73
2021/05/16 00:17:30;;;;;;;14.82;8.92;;;;;;;14.16;66.16;98850.66;317106;108;2853965;-73
2021/05/16 00:18:42;;;;;;;11.82;8.88;;;;;;;14.28;66.47;98849.46;386054;104;2081973;-73
2021/05/16 00:19:47;;;;;;;11.33;8.04;;;;;;;14.17;66.41;98844.96;368300;110;1961984;-72
2021/05/16 00:21:20;;;;;;;11.07;8.60;;;;;;;14.28;66.58;98844.03;388593;103;2949900;-73
2021/05/16 00:22:25;;;;;;;11.42;8.22;;;;;;;14.19;66.57;98844.73;369114;105;1962270;-74
2021/05/16 00:23:49;;;;;;;11.85;8.49;;;;;;;14.18;66.48;98843.88;378914;105;1961965;-73
2021/05/16 00:25:21;;;;;;;11.98;8.69;;;;;;;14.31;66.44;98850.86;392037;99;1985863;-73
2021/05/16 00:26:27;;;;;;;12.42;8.56;;;;;;;14.17;66.41;98844.96;392480;102;1963970;-72
2021/05/16 00:27:41;;;;;;;11.41;8.06;;;;;;;14.28;66.46;98843.21;352493;103;2869029;-74
2021/05/16 00:28:47;;;;;;;12.98;8.41;;;;;;;14.15;66.34;98851.72;380369;105;1960929;-74
2021/05/16 00:30:13;;;;;;;10.53;7.82;;;;;;;14.14;66.47;98856.33;351134;105;1969153;-73
2021/05/16 00:31:25;;;;;;;11.96;8.36;;;;;;;13.79;66.54;98791.46;339694;104;2163871;-73
2021/05/16 00:32:30;;;;;;;11.97;8.33;;;;;;;14.13;66.54;98857.41;349870;105;1964987;-74
2021/05/16 00:34:02;;;;;;;12.13;8.61;;;;;;;14.27;66.67;98861.41;396674;105;1986037;-73
2021/05/16 00:35:10;;;;;;;11.94;8.19;;;;;;;14.16;66.61;98862.34;370229;106;1962048;-73
2021/05/16 00:36:35;;;;;;;12.71;8.53;;;;;;;14.15;66.68;98862.58;356155;108;1961925;-74
2021/05/16 00:37:51;;;;;;;11.75;8.66;;;;;;;14.26;66.99;98859.78;386324;106;2071998;-74
2021/05/16 00:38:58;;;;;;;14.01;9.73;;;;;;;14.14;67.04;98861.77;368404;109;1961976;-74
2021/05/16 00:40:11;;;;;;;11.94;8.93;;;;;;;14.22;67.08;98860.52;376923;106;1964992;-71
2021/05/16 00:41:17;;;;;;;13.59;9.79;;;;;;;14.11;67.04;98859.55;369902;108;1961963;-73
2021/05/16 00:42:41;;;;;;;13.94;8.57;;;;;;;14.07;67.08;98861.92;369557;107;1962006;-73
2021/05/16 00:43:55;;;;;;;12.24;8.96;;;;;;;14.17;67.17;98852.30;336525;106;2856970;-72
2021/05/16 00:45:03;;;;;;;12.71;8.93;;;;;;;14.04;67.33;98858.89;332926;109;1961962;-73
2021/05/16 00:46:19;;;;;;;14.48;9.13;;;;;;;14.13;67.46;98862.84;380490;108;1987970;-73
2021/05/16 00:47:25;;;;;;;12.76;9.09;;;;;;;13.99;67.38;98853.38;358976;112;1962039;-71
2021/05/16 00:48:49;;;;;;;13.76;9.83;;;;;;;13.99;67.46;98859.63;327601;112;2459016;-72
2021/05/16 00:49:55;;;;;;;11.27;8.09;;;;;;;14.00;67.40;98855.86;328815;112;1963015;-73
2021/05/16 00:51:01;;;;;;;12.59;8.69;;;;;;;14.01;67.50;98859.39;354807;112;1961951;-72
2021/05/16 00:52:13;;;;;;;12.16;9.18;;;;;;;14.12;67.57;98863.90;398483;104;1985964;-74
2021/05/16 00:53:21;;;;;;;11.61;9.05;;;;;;;14.01;67.62;98865.64;350791;106;2394017;-72
2021/05/16 00:54:28;;;;;;;12.84;8.66;;;;;;;13.97;67.69;98858.23;381546;106;1963954;-74
2021/05/16 00:55:40;;;;;;;14.62;9.71;;;;;;;14.06;67.80;98864.90;392662;104;1962026;-72
2021/05/16 00:56:46;;;;;;;13.31;9.53;;;;;;;13.95;67.85;98863.11;371023;108;1965763;-72
2021/05/16 00:57:58;;;;;;;13.66;10.03;;;;;;;14.05;67.94;98865.95;386600;106;1985974;-73
2021/05/16 00:59:05;;;;;;;14.36;9.34;;;;;;;13.89;67.96;98864.89;316608;110;2687065;-73
2021/05/16 01:00:35;;;;;;;13.88;9.26;;;;;;;13.88;67.97;98868.69;348228;110;2893124;-75
2021/05/16 01:01:42;;;;;;;12.77;8.84;;;;;;;13.87;68.00;98875.20;358985;111;1962039;-72
2021/05/16 01:02:54;;;;;;;12.74;9.46;;;;;;;13.98;68.27;98874.28;368378;104;2413039;-71
2021/05/16 01:04:03;;;;;;;12.86;9.07;;;;;;;13.84;68.16;98876.52;375183;106;1962049;-72
2021/05/16 01:05:19;;;;;;;12.52;9.14;;;;;;;13.93;68.40;98871.48;394775;103;1986897;-73
2021/05/16 01:06:25;;;;;;;12.94;9.44;;;;;;;13.80;68.37;98869.92;374668;107;1961962;-72
2021/05/16 01:07:50;;;;;;;13.42;9.80;;;;;;;13.79;68.36;98871.00;354628;106;1961982;-73
2021/05/16 01:09:07;;;;;;;13.99;10.85;;;;;;;13.86;68.67;98870.81;384354;106;2071922;-73
2021/05/16 01:10:12;;;;;;;14.49;10.58;;;;;;;13.76;68.48;98876.08;368254;109;1960810;-72
2021/05/16 01:11:19;;;;;;;14.76;10.88;;;;;;;13.75;68.63;98877.16;369500;109;1965949;-72
2021/05/16 01:12:31;;;;;;;14.09;10.76;;;;;;;13.73;68.64;98882.81;338678;111;1961966;-74
2021/05/16 01:13:39;;;;;;;13.76;10.81;;;;;;;13.81;68.92;98879.72;333634;106;2786014;-74
2021/05/16 01:14:46;;;;;;;14.68;10.33;;;;;;;13.70;68.94;98871.64;346924;109;1962095;-73
2021/05/16 01:15:59;;;;;;;14.13;10.89;;;;;;;13.80;69.02;98871.81;347301;106;2662972;-74
2021/05/16 01:17:04;;;;;;;13.89;10.39;;;;;;;13.68;68.96;98874.62;342127;109;1960671;-73
2021/05/16 01:18:29;;;;;;;13.49;10.47;;;;;;;13.66;69.13;98870.50;367186;109;1961975;-73
2021/05/16 01:19:42;;;;;;;15.13;10.71;;;;;;;13.71;69.53;98868.69;388848;106;1986008;-73
2021/05/16 01:20:51;;;;;;;14.72;11.16;;;;;;;13.41;69.42;98831.80;335776;108;2493010;-73
2021/05/16 01:22:00;;;;;;;14.41;11.04;;;;;;;13.58;69.46;98866.30;336887;109;1960977;-74
2021/05/16 01:24:16;;;;;;;12.17;9.97;;;;;;;13.66;69.65;98878.64;390899;105;1984904;-75
2021/05/16 01:25:34;;;;;;;14.18;11.03;;;;;;;13.62;69.82;98875.58;393247;104;1984889;-73
2021/05/16 01:26:43;;;;;;;14.08;10.91;;;;;;;13.50;69.81;98877.55;377150;106;1961884;-74
2021/05/16 01:27:56;;;;;;;12.53;9.94;;;;;;;13.58;69.99;98875.25;394406;104;1985990;-73
2021/05/16 01:29:01;;;;;;;13.24;10.53;;;;;;;13.48;69.80;98874.25;367943;107;1961115;-73
2021/05/16 01:30:08;;;;;;;16.07;10.84;;;;;;;13.47;69.96;98880.73;370092;109;1961940;-73
2021/05/16 01:31:13;;;;;;;14.14;10.74;;;;;;;13.47;70.08;98886.16;347623;103;2280781;-71
2021/05/16 01:32:29;;;;;;;15.48;11.22;;;;;;;13.58;70.27;98877.15;394031;104;1985931;-74
2021/05/16 01:33:35;;;;;;;12.56;8.95;;;;;;;13.47;70.06;98883.44;370356;109;1961882;-73
2021/05/16 01:34:43;;;;;;;13.66;8.33;;;;;;;13.47;70.15;98887.00;369485;109;1964041;-72
2021/05/16 01:35:55;;;;;;;12.64;8.00;;;;;;;13.62;70.37;98886.43;396657;104;1986940;-74
2021/05/16 01:37:01;;;;;;;10.81;7.22;;;;;;;13.56;70.37;98884.70;374587;106;1962005;-73
2021/05/16 01:38:07;;;;;;;11.40;7.88;;;;;;;13.65;70.33;98888.66;368665;108;1961978;-73
2021/05/16 01:39:41;;;;;;;11.00;6.58;;;;;;;13.87;70.12;98875.20;359824;101;2741027;-73
2021/05/16 01:40:47;;;;;;;10.32;6.78;;;;;;;13.86;70.09;98878.96;386329;103;1962008;-72
2021/05/16 01:41:54;;;;;;;10.81;6.82;;;;;;;13.95;69.81;98873.97;381082;105;1961946;-73
2021/05/16 01:43:12;;;;;;;10.57;7.70;;;;;;;14.16;69.67;98867.77;392616;104;2071919;-73
2021/05/16 01:44:17;;;;;;;11.23;7.42;;;;;;;14.11;69.25;98867.70;371053;108;1961896;-73
2021/05/16 01:45:27;;;;;;;10.80;7.63;;;;;;;14.18;69.23;98872.94;370381;107;1963977;-72
2021/05/16 01:46:33;;;;;;;12.59;8.76;;;;;;;14.22;69.26;98872.20;374283;107;1964047;-74
2021/05/16 01:47:39;;;;;;;12.29;8.71;;;;;;;14.25;68.85;98876.31;372438;107;1963013;-72
2021/05/16 01:49:11;;;;;;;12.51;8.07;;;;;;;14.32;68.62;98878.88;346696;107;2497909;-70
2021/05/16 01:50:19;;;;;;;13.27;9.66;;;;;;;14.16;68.67;98875.92;360930;110;1961921;-73
2021/05/16 01:51:31;;;;;;;12.87;8.94;;;;;;;14.22;68.67;98880.35;391391;104;1985732;-71
2021/05/16 01:52:39;;;;;;;12.82;10.12;;;;;;;14.06;68.69;98876.58;378890;105;1960911;-71
2021/05/16 01:53:51;;;;;;;13.41;9.77;;;;;;;14.13;68.83;98887.29;337724;106;2093052;-71
2021/05/16 01:55:05;;;;;;;14.87;11.12;;;;;;;14.09;68.88;98886.13;390052;104;2071844;-73
2021/05/16 01:56:30;;;;;;;13.84;9.50;;;;;;;13.97;68.80;98890.81;377631;107;1961915;-73
2021/05/16 01:57:37;;;;;;;13.17;10.43;;;;;;;13.92;68.90;98894.28;304368;106;2220204;-72
2021/05/16 01:58:51;;;;;;;12.72;10.21;;;;;;;14.00;69.06;98891.16;392637;104;1972951;-72
2021/05/16 01:59:57;;;;;;;13.07;10.28;;;;;;;13.88;68.87;98898.55;362044;107;1961983;-73
2021/05/16 02:01:09;;;;;;;15.15;11.85;;;;;;;13.72;69.12;98854.05;389809;104;2072985;-73
2021/05/16 02:02:16;;;;;;;14.83;10.98;;;;;;;13.83;69.11;98887.61;335858;106;1961979;-73
2021/05/16 02:03:42;;;;;;;14.36;10.91;;;;;;;13.80;69.24;98888.10;328778;107;2656974;-72
2021/05/16 02:04:49;;;;;;;15.91;11.42;;;;;;;13.77;69.37;98888.59;361308;111;1962021;-72
2021/05/16 02:05:55;;;;;;;14.18;11.34;;;;;;;13.74;69.36;98889.09;359632;110;1962945;-73
2021/05/16 02:07:01;;;;;;;15.40;11.67;;;;;;;13.72;69.42;98893.94;298350;110;2154747;-72
2021/05/16 02:08:13;;;;;;;15.09;12.04;;;;;;;13.83;69.48;98891.14;379051;106;2072827;-73
2021/05/16 02:09:20;;;;;;;15.31;11.40;;;;;;;13.71;69.50;98895.02;363509;109;1962036;-72
2021/05/16 02:10:32;;;;;;;14.04;10.86;;;;;;;13.80;69.72;98893.53;393367;103;1964968;-71
2021/05/16 02:11:40;;;;;;;15.44;11.84;;;;;;;13.68;69.60;98900.91;376572;106;1961974;-72
2021/05/16 02:13:03;;;;;;;15.57;11.23;;;;;;;13.66;69.69;98903.07;372847;105;1961972;-73
2021/05/16 02:14:09;;;;;;;15.65;11.56;;;;;;;13.62;69.88;98908.96;371382;107;1961938;-72
2021/05/16 02:15:21;;;;;;;16.68;11.87;;;;;;;13.69;69.99;98906.11;385345;106;1986975;-72
2021/05/16 02:16:30;;;;;;;15.17;11.88;;;;;;;13.55;70.15;98908.31;366954;109;1961962;-71
2021/05/16 02:18:53;;;;;;;13.34;9.74;;;;;;;13.63;70.42;98907.91;399487;104;1986911;-72
2021/05/16 02:20:02;;;;;;;14.63;9.12;;;;;;;13.54;70.50;98903.11;338326;105;2684944;-73
2021/05/16 02:21:14;;;;;;;14.23;9.10;;;;;;;13.70;70.54;98904.20;383707;106;1961063;-73
2021/05/16 02:22:25;;;;;;;12.31;8.90;;;;;;;13.79;70.47;98900.04;400509;104;1985998;-73
2021/05/16 02:23:32;;;;;;;11.69;8.69;;;;;;;13.75;70.39;98904.30;334139;105;2725056;-73
2021/05/16 02:24:44;;;;;;;12.08;9.01;;;;;;;13.95;70.23;98906.55;393111;103;2071970;-74
2021/05/16 02:25:54;;;;;;;10.94;7.97;;;;;;;13.91;70.22;98900.77;378224;105;1961998;-72
2021/05/16 02:27:18;;;;;;;12.11;7.82;;;;;;;14.01;69.97;98905.55;330436;106;2093952;-73
2021/05/16 02:28:30;;;;;;;11.55;8.22;;;;;;;14.21;69.45;98905.03;393889;104;1986991;-74
2021/05/16 02:29:36;;;;;;;12.16;8.53;;;;;;;14.17;69.47;98910.15;365794;108;1963025;-73
2021/05/16 02:30:50;;;;;;;13.87;9.11;;;;;;;14.34;69.00;98904.69;355657;106;2469096;-73
2021/05/16 02:31:58;;;;;;;13.36;9.87;;;;;;;14.29;68.96;98905.45;366652;108;1963987;-73
2021/05/16 02:33:24;;;;;;;11.33;8.35;;;;;;;14.31;68.82;98905.19;306422;107;2195895;-73
2021/05/16 02:34:36;;;;;;;14.33;10.19;;;;;;;14.39;68.68;98906.66;390608;104;2071994;-72
2021/05/16 02:35:43;;;;;;;13.16;10.19;;;;;;;14.28;68.62;98909.23;375983;106;1962005;-74
2021/05/16 02:36:51;;;;;;;14.88;10.70;;;;;;;14.29;68.41;98913.61;376836;105;1961835;-71
2021/05/16 02:37:57;;;;;;;15.30;10.95;;;;;;;14.30;68.36;98914.42;369553;108;1961945;-73
2021/05/16 02:39:09;;;;;;;16.56;12.48;;;;;;;14.41;68.32;98910.78;385616;106;1985960;-72
2021/05/16 02:40:17;;;;;;;15.35;11.58;;;;;;;14.17;68.56;98920.20;366447;109;1961947;-72
2021/05/16 02:41:24;;;;;;;16.03;12.10;;;;;;;14.15;68.59;98917.72;365568;108;1962021;-71
2021/05/16 02:42:36;;;;;;;14.10;10.43;;;;;;;14.35;68.40;98917.22;387474;106;1985952;-72
2021/05/16 02:43:43;;;;;;;17.13;12.14;;;;;;;14.13;68.56;98921.75;338886;109;2381028;-72
2021/05/16 02:44:55;;;;;;;14.92;11.96;;;;;;;14.19;68.79;98918.06;393953;104;1984904;-72
2021/05/16 02:46:01;;;;;;;17.89;12.78;;;;;;;14.06;68.72;98922.75;374724;105;1961956;-72
2021/05/16 02:47:24;;;;;;;16.72;12.40;;;;;;;14.04;68.69;98927.59;367476;108;1961930;-72
2021/05/16 02:48:36;;;;;;;16.03;11.81;;;;;;;14.14;68.80;98923.41;391999;104;1986939;-72
2021/05/16 02:49:42;;;;;;;16.91;12.14;;;;;;;14.01;68.53;98922.66;370062;107;1962049;-71
2021/05/16 02:51:14;;;;;;;17.88;12.12;;;;;;;14.13;68.97;98929.89;400705;98;1986954;-72
2021/05/16 02:52:21;;;;;;;16.87;12.76;;;;;;;14.00;68.84;98931.89;385659;103;1962947;-71
2021/05/16 02:53:44;;;;;;;19.78;13.30;;;;;;;14.01;68.79;98930.80;377099;103;1962007;-72
2021/05/16 02:54:56;;;;;;;17.64;12.92;;;;;;;14.10;68.83;98928.50;391548;104;1985891;-72
2021/05/16 02:56:03;;;;;;;16.54;12.87;;;;;;;14.01;68.82;98932.70;377096;107;1961009;-72
2021/05/16 02:57:15;;;;;;;18.67;13.43;;;;;;;14.07;69.01;98924.38;385784;106;1985955;-72
2021/05/16 02:58:22;;;;;;;16.26;12.88;;;;;;;13.95;68.97;98920.94;366873;110;1962057;-72
2021/05/16 02:59:48;;;;;;;16.87;13.61;;;;;;;14.00;68.76;98929.17;353276;111;1961967;-73
2021/05/16 03:01:00;;;;;;;19.26;12.77;;;;;;;14.13;69.06;98924.47;384578;106;1986991;-71
2021/05/16 03:02:08;;;;;;;16.63;12.74;;;;;;;13.99;68.98;98929.41;318698;109;2809943;-72
2021/05/16 03:03:14;;;;;;;19.50;13.18;;;;;;;13.97;69.16;98926.95;364842;109;1965063;-72
2021/05/16 03:04:45;;;;;;;20.15;12.95;;;;;;;14.08;69.37;98923.33;417525;99;1985951;-72
2021/05/16 03:05:52;;;;;;;17.47;12.27;;;;;;;13.97;69.25;98920.67;390116;102;1961997;-73
2021/05/16 03:06:58;;;;;;;19.31;14.17;;;;;;;13.98;69.23;98927.77;372749;102;1962000;-73
2021/05/16 03:08:04;;;;;;;18.15;13.81;;;;;;;13.98;69.26;98931.30;394234;101;1961959;-72
2021/05/16 03:09:17;;;;;;;19.01;15.76;;;;;;;14.11;69.35;98926.63;394934;104;2071782;-72
2021/05/16 03:10:24;;;;;;;18.55;14.33;;;;;;;14.00;69.28;98929.17;361827;107;1961823;-72
2021/05/16 03:11:37;;;;;;;20.33;15.95;;;;;;;14.11;69.40;98929.34;384933;106;2071972;-71
2021/05/16 03:12:43;;;;;;;18.81;14.23;;;;;;;14.01;69.30;98929.98;312661;109;2122365;-72
2021/05/16 03:14:08;;;;;;;20.66;14.63;;;;;;;14.01;69.36;98929.98;321653;111;2692058;-72
2021/05/16 03:15:20;;;;;;;16.93;13.76;;;;;;;14.13;69.51;98930.74;389562;106;1972017;-72
2021/05/16 03:16:28;;;;;;;20.18;14.18;;;;;;;14.04;69.32;98933.02;363671;108;2892924;-72
2021/05/16 03:17:34;;;;;;;19.96;15.01;;;;;;;14.05;69.30;98928.41;369090;109;1960876;-74
2021/05/16 03:18:40;;;;;;;19.29;14.82;;;;;;;14.06;69.28;98925.46;364616;109;1963054;-72
2021/05/16 03:19:52;;;;;;;16.17;12.61;;;;;;;14.19;69.31;98926.21;404535;101;1985864;-72
2021/05/16 03:20:59;;;;;;;18.59;14.02;;;;;;;14.10;69.28;98925.78;383371;104;1961045;-72
2021/05/16 03:22:09;;;;;;;16.64;12.31;;;;;;;14.12;69.24;98922.83;384094;104;1962907;-72
2021/05/16 03:23:21;;;;;;;18.74;14.02;;;;;;;14.23;69.25;98913.77;397257;104;1986085;-73
2021/05/16 03:24:27;;;;;;;19.27;13.32;;;;;;;14.14;69.19;98924.23;381482;106;1961942;-72
2021/05/16 03:25:43;;;;;;;18.08;13.26;;;;;;;14.28;69.22;98921.99;350912;104;2237974;-72
2021/05/16 03:26:49;;;;;;;18.98;14.36;;;;;;;14.18;69.17;98924.55;381925;105;1961936;-73
2021/05/16 03:28:13;;;;;;;19.40;13.49;;;;;;;14.18;69.11;98925.36;350813;105;2417897;-72
2021/05/16 03:29:25;;;;;;;17.66;14.31;;;;;;;14.33;69.20;98923.97;389568;103;2073076;-72
2021/05/16 03:30:33;;;;;;;17.84;13.23;;;;;;;14.24;69.05;98918.96;376357;106;1963015;-72
2021/05/16 03:31:45;;;;;;;16.28;12.23;;;;;;;14.40;69.01;98913.77;391737;104;1986963;-71
2021/05/16 03:32:50;;;;;;;18.53;12.91;;;;;;;14.30;68.91;98912.52;372953;107;1962042;-72
2021/05/16 03:34:13;;;;;;;17.72;12.81;;;;;;;14.33;68.82;98910.39;366630;107;1963965;-72
2021/05/16 03:35:25;;;;;;;16.32;12.24;;;;;;;14.47;68.74;98915.23;394265;104;1986940;-73
2021/05/16 03:36:31;;;;;;;19.51;13.64;;;;;;;14.41;68.69;98918.93;378046;106;1961094;-73
2021/05/16 03:37:38;;;;;;;18.92;13.69;;;;;;;14.45;68.58;98919.28;337241;106;2619118;-74
2021/05/16 03:38:50;;;;;;;17.97;13.61;;;;;;;14.61;68.53;98925.78;392833;104;1972022;-74
2021/05/16 03:39:55;;;;;;;20.06;14.05;;;;;;;14.53;68.40;98921.59;374312;105;1961057;-73
2021/05/16 03:41:08;;;;;;;18.20;13.93;;;;;;;14.67;68.45;98925.59;330130;103;2212937;-73
2021/05/16 03:42:13;;;;;;;19.06;13.47;;;;;;;14.59;68.29;98931.45;375335;105;1961925;-75
2021/05/16 03:43:37;;;;;;;20.03;13.84;;;;;;;14.62;68.22;98930.95;374338;105;1962002;-74
2021/05/16 03:44:49;;;;;;;18.71;13.77;;;;;;;14.78;68.19;98936.61;396059;104;1987985;-71
2021/05/16 03:45:54;;;;;;;18.28;13.41;;;;;;;14.69;68.12;98931.61;379228;105;1960664;-72
2021/05/16 03:47:06;;;;;;;19.51;14.30;;;;;;;14.83;68.08;98934.77;393273;104;1987919;-72
2021/05/16 03:48:13;;;;;;;19.75;14.83;;;;;;;14.75;68.05;98946.09;346649;108;2892987;-73
2021/05/16 03:49:25;;;;;;;20.75;15.57;;;;;;;14.89;68.08;98941.91;392930;106;1973949;-73
2021/05/16 03:50:32;;;;;;;21.03;15.53;;;;;;;14.82;67.96;98951.33;371708;107;1961791;-73
2021/05/16 03:51:55;;;;;;;20.38;13.73;;;;;;;14.85;67.87;98953.57;372825;107;1963901;-73
2021/05/16 03:53:07;;;;;;;19.67;14.29;;;;;;;15.02;67.89;98951.61;330198;106;2240968;-72
2021/05/16 03:54:15;;;;;;;20.32;14.29;;;;;;;14.90;67.75;98950.92;337913;110;1961976;-73
2021/05/16 03:55:21;;;;;;;18.31;14.19;;;;;;;14.93;67.67;98958.57;359107;111;1962026;-72
2021/05/16 03:56:34;;;;;;;18.63;13.52;;;;;;;15.07;67.50;98956.30;395965;103;1964941;-72
2021/05/16 03:57:40;;;;;;;18.37;13.93;;;;;;;14.98;67.35;98958.64;382515;106;1962065;-72
2021/05/16 03:58:46;;;;;;;17.36;13.22;;;;;;;15.01;67.31;98960.03;375116;106;1962007;-72
2021/05/16 03:59:58;;;;;;;21.18;15.70;;;;;;;15.15;67.20;98958.57;393002;103;2070775;-73
2021/05/16 04:01:04;;;;;;;18.64;14.59;;;;;;;15.06;67.03;98966.36;377804;105;1960809;-73
2021/05/16 04:02:18;;;;;;;19.24;14.50;;;;;;;15.19;67.15;98962.45;348900;103;2791913;-72
2021/05/16 04:03:30;;;;;;;19.28;14.23;;;;;;;15.24;67.09;98967.95;396129;103;1971773;-72
2021/05/16 04:04:54;;;;;;;21.50;14.82;;;;;;;15.14;67.10;98967.82;371421;106;1962671;-73
2021/05/16 04:06:08;;;;;;;23.38;16.11;;;;;;;14.54;66.90;98851.75;343111;103;2869178;-72
2021/05/16 04:07:13;;;;;;;21.94;16.11;;;;;;;15.19;66.84;98970.61;352884;107;1961009;-72
2021/05/16 04:08:37;;;;;;;21.58;16.01;;;;;;;15.23;66.65;98974.45;372843;105;1962005;-73
2021/05/16 04:09:49;;;;;;;18.57;15.10;;;;;;;15.38;66.60;98969.20;398565;104;1986965;-74
2021/05/16 04:10:55;;;;;;;19.33;14.89;;;;;;;15.29;66.54;98967.98;379284;105;1961987;-74
2021/05/16 04:12:07;;;;;;;20.71;15.58;;;;;;;15.45;66.55;98965.45;350355;104;2727926;-73
2021/05/16 04:13:13;;;;;;;22.03;15.01;;;;;;;15.36;66.46;98971.34;361479;107;1961928;-73
2021/05/16 04:14:36;;;;;;;22.52;15.27;;;;;;;15.42;66.36;98974.13;377136;107;1961984;-73
2021/05/16 04:15:49;;;;;;;22.92;15.77;;;;;;;15.58;66.02;98974.03;393129;104;2074070;-73
2021/05/16 04:16:55;;;;;;;19.27;15.55;;;;;;;15.50;65.93;98976.39;372143;107;1961974;-73
2021/05/16 04:18:08;;;;;;;23.86;16.89;;;;;;;15.63;66.00;98976.00;361402;104;1972912;-73
2021/05/16 04:19:13;;;;;;;24.09;16.12;;;;;;;15.55;66.03;98979.17;377211;106;1961958;-73
2021/05/16 04:20:38;;;;;;;20.82;15.71;;;;;;;15.58;65.82;98970.49;350456;106;2384031;-72
2021/05/16 04:21:50;;;;;;;23.57;17.01;;;;;;;15.75;65.53;98973.17;397276;104;1964901;-73
2021/05/16 04:22:59;;;;;;;24.53;17.18;;;;;;;15.66;65.49;98974.66;374091;105;1969986;-73
2021/05/16 04:24:12;;;;;;;22.46;15.41;;;;;;;15.79;65.27;98968.84;405830;101;1986010;-73
2021/05/16 04:25:18;;;;;;;21.62;15.74;;;;;;;15.72;65.04;98971.78;360003;103;2433955;-72
2021/05/16 04:26:43;;;;;;;20.59;15.07;;;;;;;15.77;64.86;98973.71;378848;103;2929002;-74
2021/05/16 04:27:55;;;;;;;25.11;16.48;;;;;;;15.91;64.76;98971.42;387175;106;1965034;-73
2021/05/16 04:29:02;;;;;;;20.54;15.96;;;;;;;15.81;64.66;98970.23;363271;110;1962013;-73
2021/05/16 04:30:15;;;;;;;20.70;15.26;;;;;;;15.97;64.35;98968.47;402484;104;1964922;-74
2021/05/16 04:31:20;;;;;;;20.74;15.21;;;;;;;15.91;64.25;98968.70;381987;105;1960943;-73
2021/05/16 04:32:43;;;;;;;20.29;15.57;;;;;;;15.93;64.17;98971.96;361518;105;1960948;-72
2021/05/16 04:33:48;;;;;;;22.53;13.99;;;;;;;15.98;64.10;98972.86;371249;107;1960811;-73
2021/05/16 04:34:54;;;;;;;21.43;14.12;;;;;;;16.03;63.83;98967.43;370384;107;1960877;-72
2021/05/16 04:36:07;;;;;;;20.57;14.81;;;;;;;16.20;63.40;98971.95;389238;106;1984951;-73
2021/05/16 04:37:13;;;;;;;21.22;14.09;;;;;;;16.10;63.28;98964.51;361825;109;2925954;-74
2021/05/16 04:38:18;;;;;;;17.80;12.09;;;;;;;16.14;63.08;98970.25;355732;109;1962868;-73
2021/05/16 04:39:30;;;;;;;19.83;13.69;;;;;;;16.28;62.67;98968.75;398063;104;1986951;-74
2021/05/16 04:40:37;;;;;;;17.84;12.71;;;;;;;16.20;62.71;98974.68;375933;105;1961954;-72
2021/05/16 04:41:49;;;;;;;21.08;13.64;;;;;;;16.35;62.38;98971.23;387107;106;1985939;-73
2021/05/16 04:43:02;;;;;;;19.11;12.61;;;;;;;16.40;62.02;98968.55;393759;103;1986981;-73
2021/05/16 04:44:25;;;;;;;17.17;12.77;;;;;;;16.33;62.25;98968.80;362363;110;1961968;-74
2021/05/16 04:45:39;;;;;;;19.55;12.39;;;;;;;16.50;62.06;98963.18;332444;106;2858941;-73
2021/05/16 04:46:47;;;;;;;17.56;12.14;;;;;;;16.41;61.96;98965.58;365013;109;1961922;-74
2021/05/16 04:48:10;;;;;;;18.55;11.76;;;;;;;16.43;61.76;98963.42;363039;109;1963967;-72
2021/05/16 04:49:23;;;;;;;16.61;12.14;;;;;;;16.60;61.75;98962.44;342095;104;2825052;-75
2021/05/16 04:50:29;;;;;;;18.81;13.03;;;;;;;16.53;61.71;98962.66;360037;107;1962918;-73
2021/05/16 04:51:42;;;;;;;17.00;13.13;;;;;;;16.68;61.37;98960.03;389994;104;2072929;-73
2021/05/16 04:52:51;;;;;;;15.78;11.47;;;;;;;16.61;61.19;98956.70;367452;106;2917818;-73
2021/05/16 04:54:14;;;;;;;17.37;13.16;;;;;;;16.65;61.09;98952.38;364024;108;1963027;-72
2021/05/16 04:55:19;;;;;;;19.14;11.91;;;;;;;16.71;61.13;98958.69;363520;111;1961976;-74
2021/05/16 04:56:32;;;;;;;18.94;13.19;;;;;;;16.89;60.95;98957.47;391816;104;2071926;-74
2021/05/16 04:57:38;;;;;;;17.21;13.32;;;;;;;16.80;60.91;98948.13;328916;107;2787980;-74
2021/05/16 04:58:44;;;;;;;19.37;13.58;;;;;;;16.84;60.85;98952.80;352778;106;1961964;-73
2021/05/16 05:00:18;;;;;;;16.69;11.88;;;;;;;16.57;60.65;98886.63;396276;103;1985964;-73
2021/05/16 05:01:25;;;;;;;18.56;13.05;;;;;;;16.95;60.70;98958.31;349670;106;2426909;-73
2021/05/16 05:02:41;;;;;;;21.31;13.92;;;;;;;17.10;60.55;98956.48;391751;104;1986028;-74
2021/05/16 05:03:47;;;;;;;17.57;12.87;;;;;;;17.02;60.50;98954.26;374285;107;1961946;-74
2021/05/16 05:04:59;;;;;;;17.03;12.54;;;;;;;17.18;60.30;98954.33;394666;103;1967095;-75
2021/05/16 05:06:05;;;;;;;18.49;12.54;;;;;;;17.09;60.24;98949.39;369852;109;1961964;-74
2021/05/16 05:07:30;;;;;;;16.94;12.46;;;;;;;17.15;60.20;98950.23;324294;107;2774002;-73
2021/05/16 05:08:38;;;;;;;17.03;13.20;;;;;;;17.20;59.96;98952.98;376328;107;1961887;-75
2021/05/16 05:10:11;;;;;;;17.97;13.92;;;;;;;17.36;59.86;98949.21;414872;99;1985959;-72
2021/05/16 05:11:16;;;;;;;19.02;13.22;;;;;;;17.31;59.86;98951.92;392843;102;1960962;-74
2021/05/16 05:12:29;;;;;;;17.69;13.37;;;;;;;17.49;59.62;98947.05;354752;104;2670992;-73
2021/05/16 05:13:34;;;;;;;19.38;13.98;;;;;;;17.42;59.56;98946.50;350203;107;1960813;-73
2021/05/16 05:14:59;;;;;;;19.59;13.88;;;;;;;17.46;59.50;98948.41;365000;108;2932049;-72
2021/05/16 05:16:12;;;;;;;23.05;14.28;;;;;;;17.66;59.41;98942.19;386536;106;1986037;-74
2021/05/16 05:17:17;;;;;;;19.88;13.68;;;;;;;17.60;59.29;98946.00;371420;109;1960706;-73
2021/05/16 05:18:31;;;;;;;19.71;14.30;;;;;;;17.75;59.20;98948.74;343177;104;2800936;-72
2021/05/16 05:19:36;;;;;;;20.26;13.94;;;;;;;17.69;59.04;98935.36;365764;109;1962921;-72
2021/05/16 05:21:05;;;;;;;20.03;13.28;;;;;;;17.72;59.15;98943.02;323825;109;1992010;-72
2021/05/16 05:22:10;;;;;;;19.31;13.31;;;;;;;17.78;58.93;98941.92;347639;109;1963963;-71
2021/05/16 05:23:42;;;;;;;17.36;12.98;;;;;;;17.93;58.80;98944.70;409969;99;1985980;-72
2021/05/16 05:24:47;;;;;;;20.62;13.34;;;;;;;17.87;58.65;98944.98;385157;104;1961978;-74
2021/05/16 05:26:00;;;;;;;17.47;13.45;;;;;;;18.04;58.45;98940.06;347565;104;2741982;-72
2021/05/16 05:27:06;;;;;;;18.94;13.78;;;;;;;17.98;58.33;98943.91;358489;110;1960780;-72